Time;durP1;ratioP1;P1;durP2;ratioP2;P2;SDS_P1;SDS_P2;PMS_P1;PMS_P2;Temp;Humidity;BMP_temperature;BMP_pressure;BME280_temperature;BME280_humidity;BME280_pressure;Samples;Min_cycle;Max_cycle;Signal;HPM_P1;HPM_P2
2021/04/16 00:00:29;;;;;;;9.30;4.20;;;;;;;-0.02;89.13;96924.50;5056386;28;20213;-72
2021/04/16 00:02:55;;;;;;;5.77;4.10;;;;;;;0.11;88.98;96924.44;5056969;28;20205;-70
2021/04/16 00:05:22;;;;;;;8.73;4.67;;;;;;;0.19;88.56;96919.63;5055650;28;20209;-70
2021/04/16 00:07:48;;;;;;;7.13;4.33;;;;;;;0.21;88.05;96912.56;5056126;28;20245;-70
2021/04/16 00:10:20;;;;;;;6.87;4.40;;;;;;;0.24;88.05;96916.72;5055956;28;20697;-69
2021/04/16 00:12:46;;;;;;;7.97;4.20;;;;;;;0.12;88.42;96913.16;5056899;28;20235;-73
2021/04/16 00:15:15;;;;;;;8.27;4.10;;;;;;;0.16;88.93;96909.44;5059495;28;20983;-70
2021/04/16 00:17:41;;;;;;;7.90;3.90;;;;;;;0.24;88.95;96914.13;5060215;28;20590;-72
2021/04/16 00:20:10;;;;;;;10.97;4.77;;;;;;;0.34;87.64;96910.84;5059791;28;21293;-71
2021/04/16 00:22:36;;;;;;;6.50;3.80;;;;;;;0.40;87.59;96909.63;5059951;28;20196;-74
2021/04/16 00:25:03;;;;;;;7.37;4.17;;;;;;;0.34;87.82;96907.44;5059043;28;20208;-71
2021/04/16 00:27:30;;;;;;;7.40;4.20;;;;;;;0.36;88.34;96901.22;5060165;28;20228;-70
2021/04/16 00:29:56;;;;;;;7.67;4.27;;;;;;;0.43;87.02;96901.66;5059937;28;20228;-72
2021/04/16 00:32:22;;;;;;;8.77;4.33;;;;;;;0.45;86.84;96898.03;5060566;28;20685;-72
2021/04/16 00:34:48;;;;;;;7.53;4.27;;;;;;;0.50;86.71;96897.72;5059926;28;20206;-74
2021/04/16 00:37:14;;;;;;;5.50;4.03;;;;;;;0.51;86.49;96895.03;5059342;28;20224;-71
2021/04/16 00:39:41;;;;;;;6.07;3.80;;;;;;;0.36;86.91;96890.84;5058960;28;20251;-71
2021/04/16 00:42:07;;;;;;;5.73;3.83;;;;;;;0.46;86.46;96888.47;5060965;28;20205;-73
2021/04/16 00:44:35;;;;;;;8.33;4.13;;;;;;;0.39;86.95;96885.44;5059301;28;20202;-70
2021/04/16 00:47:06;;;;;;;8.20;4.33;;;;;;;0.26;87.24;96889.78;5058544;28;20235;-69
2021/04/16 00:49:38;;;;;;;8.27;4.00;;;;;;;0.27;87.08;96885.44;5060368;28;20228;-70
2021/04/16 00:52:06;;;;;;;12.80;4.40;;;;;;;0.30;87.20;96880.88;5060017;28;20204;-71
2021/04/16 00:54:35;;;;;;;7.20;4.43;;;;;;;0.36;86.92;96888.25;5059746;28;20250;-70
2021/04/16 00:57:02;;;;;;;8.60;3.93;;;;;;;0.34;87.58;96879.72;5059112;28;20253;-73
2021/04/16 00:59:32;;;;;;;6.83;3.73;;;;;;;0.40;86.84;96879.34;5059601;28;20227;-70
2021/04/16 01:02:01;;;;;;;5.10;3.43;;;;;;;0.40;87.43;96876.75;5058718;28;20200;-73
2021/04/16 01:04:29;;;;;;;8.70;4.10;;;;;;;0.41;87.25;96875.81;5059219;28;20204;-69
2021/04/16 01:06:55;;;;;;;7.77;4.20;;;;;;;0.34;87.43;96878.91;5058709;28;20236;-70
2021/04/16 01:09:21;;;;;;;6.03;3.50;;;;;;;0.32;87.92;96873.00;5056626;28;20203;-71
2021/04/16 01:11:47;;;;;;;6.40;4.10;;;;;;;0.24;88.01;96881.28;5058661;28;20210;-72
2021/04/16 01:14:14;;;;;;;6.33;3.90;;;;;;;0.10;87.34;96877.91;5058928;28;20726;-72
2021/04/16 01:16:41;;;;;;;6.97;3.80;;;;;;;0.07;88.34;96876.34;5057851;28;20221;-74
2021/04/16 01:19:16;;;;;;;5.40;3.67;;;;;;;-0.07;88.79;96878.16;5059019;28;20277;-72
2021/04/16 01:21:46;;;;;;;9.93;4.00;;;;;;;-0.09;89.72;96876.59;5059265;28;20621;-69
2021/04/16 01:24:22;;;;;;;8.27;4.17;;;;;;;-0.09;90.06;96867.06;5058845;28;20947;-74
2021/04/16 01:26:49;;;;;;;6.83;4.10;;;;;;;0.00;90.03;96869.09;5057438;28;20219;-74
2021/04/16 01:29:15;;;;;;;7.50;3.97;;;;;;;0.11;89.00;96872.63;5058995;28;20209;-72
2021/04/16 01:31:47;;;;;;;8.63;3.73;;;;;;;0.07;87.65;96867.75;5058461;28;20243;-71
2021/04/16 01:34:14;;;;;;;8.37;3.93;;;;;;;0.19;86.85;96865.22;5059265;28;20206;-69
2021/04/16 01:36:40;;;;;;;5.43;3.83;;;;;;;0.10;86.38;96863.22;5057809;28;20220;-74
2021/04/16 01:39:06;;;;;;;5.63;3.57;;;;;;;-0.07;87.82;96864.41;5059096;28;20224;-70
2021/04/16 01:41:33;;;;;;;7.00;4.03;;;;;;;-0.07;87.36;96864.41;5057865;28;20203;-71
2021/04/16 01:44:02;;;;;;;6.00;3.90;;;;;;;-0.22;87.84;96866.19;5059288;28;20211;-70
2021/04/16 01:46:28;;;;;;;5.93;3.70;;;;;;;-0.47;89.30;96857.47;5058400;28;20288;-72
2021/04/16 01:48:56;;;;;;;8.30;4.30;;;;;;;-0.58;89.90;96863.31;5058323;28;20201;-70
2021/04/16 01:51:25;;;;;;;5.90;3.90;;;;;;;-0.55;91.13;96863.16;5058514;28;20208;-71
2021/04/16 01:54:03;;;;;;;6.57;4.23;;;;;;;-0.45;90.74;96864.22;5059254;28;20209;-71
2021/04/16 01:56:30;;;;;;;6.10;4.17;;;;;;;-0.46;90.42;96864.31;5057364;28;20223;-73
2021/04/16 01:58:56;;;;;;;5.00;3.57;;;;;;;-0.28;88.89;96865.75;5058482;28;20225;-70
2021/04/16 02:01:22;;;;;;;4.87;3.30;;;;;;;-0.33;88.48;96858.28;5058646;28;20674;-72
2021/04/16 02:03:48;;;;;;;5.97;3.80;;;;;;;-0.57;89.02;96856.41;5058513;28;20240;-73
2021/04/16 02:06:14;;;;;;;7.90;4.07;;;;;;;-0.49;87.74;96851.56;5057590;28;20594;-71
2021/04/16 02:08:40;;;;;;;6.90;4.20;;;;;;;-0.44;87.67;96854.69;5057753;28;20196;-71
2021/04/16 02:11:06;;;;;;;8.70;3.90;;;;;;;-0.44;86.99;96854.69;5057759;28;20299;-69
2021/04/16 02:13:32;;;;;;;9.07;3.90;;;;;;;-0.42;87.43;96848.50;5057613;28;20200;-70
2021/04/16 02:15:59;;;;;;;6.03;3.53;;;;;;;-0.48;87.93;96853.25;5057286;28;20228;-70
2021/04/16 02:18:25;;;;;;;6.67;3.93;;;;;;;-0.50;88.44;96852.50;5058128;28;20224;-70
2021/04/16 02:20:51;;;;;;;7.37;4.10;;;;;;;-0.43;87.87;96846.03;5058308;28;20317;-70
2021/04/16 02:23:17;;;;;;;6.27;4.03;;;;;;;-0.47;88.91;96847.09;5057826;28;20208;-71
2021/04/16 02:25:43;;;;;;;7.37;4.47;;;;;;;-0.67;89.84;96844.13;5057647;28;20201;-69
2021/04/16 02:28:09;;;;;;;9.47;4.40;;;;;;;-0.83;91.01;96844.22;5057779;28;20296;-70
2021/04/16 02:30:36;;;;;;;5.63;3.80;;;;;;;-0.77;90.91;96838.69;5057630;28;20196;-70
2021/04/16 02:33:03;;;;;;;9.53;4.03;;;;;;;-0.88;90.94;96838.53;5057281;28;20208;-69
2021/04/16 02:35:30;;;;;;;5.10;3.47;;;;;;;-0.70;89.84;96842.56;5057644;28;20242;-73
2021/04/16 02:37:57;;;;;;;6.80;4.00;;;;;;;-0.65;88.16;96840.50;5056059;28;20224;-69
2021/04/16 02:40:25;;;;;;;5.73;3.63;;;;;;;-0.70;88.08;96842.56;5057521;28;20204;-73
2021/04/16 02:42:52;;;;;;;9.10;4.10;;;;;;;-0.67;89.15;96841.53;5057632;28;20217;-74
2021/04/16 02:45:21;;;;;;;5.50;3.67;;;;;;;-0.65;88.14;96832.72;5057206;28;20216;-68
2021/04/16 02:47:47;;;;;;;6.23;3.90;;;;;;;-0.86;89.51;96841.81;5057449;28;20217;-70
2021/04/16 02:50:18;;;;;;;7.20;3.67;;;;;;;-0.88;88.09;96841.09;5057735;28;20200;-72
2021/04/16 02:52:44;;;;;;;5.80;3.73;;;;;;;-0.81;88.76;96841.56;5056968;28;20223;-70
2021/04/16 02:55:10;;;;;;;6.97;3.90;;;;;;;-0.84;89.16;96840.00;5056834;28;20212;-73
2021/04/16 02:57:37;;;;;;;6.70;4.03;;;;;;;-0.83;87.66;96835.63;5054469;28;20220;-70
2021/04/16 03:00:05;;;;;;;6.10;4.00;;;;;;;-0.87;87.19;96835.00;5056040;28;20229;-71
2021/04/16 03:02:31;;;;;;;7.37;4.00;;;;;;;-0.93;87.30;96835.38;5056808;28;20204;-73
2021/04/16 03:04:57;;;;;;;6.57;3.60;;;;;;;-0.88;88.06;96832.50;5056831;28;20315;-74
2021/04/16 03:07:25;;;;;;;5.23;3.77;;;;;;;-0.96;88.14;96834.72;5056312;28;20228;-71
2021/04/16 03:09:51;;;;;;;8.23;4.07;;;;;;;-0.98;87.69;96833.97;5056728;28;20257;-70
2021/04/16 03:12:17;;;;;;;6.83;3.53;;;;;;;-1.02;87.86;96832.50;5057444;28;20291;-69
2021/04/16 03:14:43;;;;;;;6.33;4.00;;;;;;;-1.13;88.84;96827.19;5057154;28;20215;-74
2021/04/16 03:17:09;;;;;;;5.90;3.57;;;;;;;-1.24;88.25;96828.75;5055920;28;20224;-69
2021/04/16 03:19:35;;;;;;;5.50;3.40;;;;;;;-1.20;87.81;96831.03;5056405;28;21163;-72
2021/04/16 03:22:02;;;;;;;7.10;3.70;;;;;;;-1.11;88.20;96825.31;5057229;28;20283;-68
2021/04/16 03:24:29;;;;;;;5.37;3.57;;;;;;;-1.24;89.56;96829.56;5057166;28;20200;-69
2021/04/16 03:26:55;;;;;;;5.53;3.47;;;;;;;-1.20;90.61;96829.31;5055264;28;21224;-70
2021/04/16 03:29:21;;;;;;;10.03;4.30;;;;;;;-1.24;90.82;96821.00;5056937;28;20253;-71
2021/04/16 03:31:47;;;;;;;8.47;4.00;;;;;;;-1.21;89.60;96826.78;5056133;28;20589;-71
2021/04/16 03:34:12;;;;;;;7.67;3.80;;;;;;;-1.50;89.52;96832.03;5057091;28;20204;-70
2021/04/16 03:36:39;;;;;;;9.37;3.70;;;;;;;-1.57;89.15;96830.75;5056414;28;20758;-71
2021/04/16 03:39:05;;;;;;;6.37;3.97;;;;;;;-1.50;91.05;96837.19;5056597;28;20224;-69
2021/04/16 03:41:32;;;;;;;6.10;3.90;;;;;;;-1.39;91.08;96827.06;5056500;28;20815;-73
2021/04/16 03:43:58;;;;;;;6.13;3.83;;;;;;;-1.33;90.14;96830.13;5057049;28;20208;-69
2021/04/16 03:46:24;;;;;;;7.67;4.00;;;;;;;-1.31;89.57;96824.84;5055801;28;20639;-69
2021/04/16 03:48:50;;;;;;;7.30;4.07;;;;;;;-1.33;89.05;96829.28;5056067;28;20232;-69
2021/04/16 03:51:17;;;;;;;7.33;4.10;;;;;;;-1.42;88.68;96841.00;5056349;28;20595;-72
2021/04/16 03:53:43;;;;;;;7.40;4.03;;;;;;;-1.44;89.63;96836.84;5056467;28;20208;-69
2021/04/16 03:56:10;;;;;;;7.57;4.73;;;;;;;-1.50;90.90;96832.03;5055682;28;20220;-70
2021/04/16 03:58:38;;;;;;;6.20;4.23;;;;;;;-1.43;89.22;96830.75;5055911;28;20278;-73
2021/04/16 04:01:05;;;;;;;6.90;4.00;;;;;;;-1.53;87.95;96838.19;5055803;28;20207;-72
2021/04/16 04:03:31;;;;;;;8.40;4.10;;;;;;;-1.48;87.51;96825.84;5056392;28;20211;-73
2021/04/16 04:05:58;;;;;;;8.80;4.13;;;;;;;-1.54;88.40;96825.38;5055405;28;20271;-69
2021/04/16 04:08:24;;;;;;;8.77;4.33;;;;;;;-1.60;88.36;96830.94;5056147;28;20743;-68
2021/04/16 04:10:50;;;;;;;8.30;4.60;;;;;;;-1.60;89.10;96830.94;5055598;28;20212;-73
2021/04/16 04:13:17;;;;;;;5.77;3.87;;;;;;;-1.67;88.96;96829.59;5056426;28;20211;-72
2021/04/16 04:15:45;;;;;;;8.43;4.20;;;;;;;-1.77;88.40;96838.81;5055594;28;20207;-69
2021/04/16 04:18:11;;;;;;;6.97;4.20;;;;;;;-1.69;89.53;96834.88;5056337;28;20294;-69
2021/04/16 04:20:41;;;;;;;8.97;4.83;;;;;;;-1.66;90.67;96836.44;5056177;28;20984;-71
2021/04/16 04:23:08;;;;;;;7.70;4.50;;;;;;;-1.55;90.67;96834.91;5056512;28;20209;-73
2021/04/16 04:25:34;;;;;;;9.23;4.80;;;;;;;-1.56;89.29;96837.56;5055816;28;20238;-70
2021/04/16 04:28:04;;;;;;;7.77;4.53;;;;;;;-1.67;88.42;96834.78;5055292;28;20207;-70
2021/04/16 04:30:32;;;;;;;8.33;4.60;;;;;;;-1.63;88.21;96836.25;5055779;28;20339;-72
2021/04/16 04:32:59;;;;;;;10.00;4.50;;;;;;;-1.65;89.96;96843.28;5056675;28;20222;-71
2021/04/16 04:35:26;;;;;;;8.07;4.90;;;;;;;-1.58;91.46;96840.25;5055223;28;20200;-71
2021/04/16 04:37:52;;;;;;;10.10;5.50;;;;;;;-1.57;91.19;96841.06;5055614;28;20232;-71
2021/04/16 04:40:19;;;;;;;13.13;5.43;;;;;;;-1.62;93.21;96840.50;5054987;28;20224;-74
2021/04/16 04:42:46;;;;;;;10.77;5.50;;;;;;;-1.74;92.61;96838.66;5055780;28;20200;-70
2021/04/16 04:45:13;;;;;;;11.10;5.20;;;;;;;-1.61;90.11;96834.44;5054759;28;20226;-69
2021/04/16 04:47:39;;;;;;;9.37;4.57;;;;;;;-1.71;90.10;96844.44;5055746;28;20277;-70
2021/04/16 04:50:08;;;;;;;9.93;5.27;;;;;;;-1.78;89.47;96838.00;5056360;28;20927;-73
2021/04/16 04:52:37;;;;;;;10.40;5.10;;;;;;;-1.80;90.13;96841.56;5055281;28;20207;-73
2021/04/16 04:55:06;;;;;;;6.20;3.93;;;;;;;-1.08;98.17;96845.84;5055536;28;20282;-70
2021/04/16 04:57:32;;;;;;;7.30;4.40;;;;;;;-0.63;90.37;96834.28;5056101;28;20259;-70
2021/04/16 04:59:58;;;;;;;11.80;7.30;;;;;;;-0.53;87.83;96839.75;5055769;28;20556;-71
2021/04/16 05:02:25;;;;;;;13.50;6.37;;;;;;;-0.52;87.43;96841.41;5059673;28;20623;-69
2021/04/16 05:04:51;;;;;;;12.33;5.10;;;;;;;-0.69;86.71;96844.19;5058998;28;20204;-72
2021/04/16 05:07:18;;;;;;;8.80;5.10;;;;;;;-0.88;87.64;96846.28;5058506;28;20224;-69
2021/04/16 05:09:44;;;;;;;10.50;5.07;;;;;;;-0.93;88.90;96844.88;5059178;28;20200;-70
2021/04/16 05:12:11;;;;;;;10.03;5.77;;;;;;;-0.99;89.68;96851.25;5059568;28;20196;-70
2021/04/16 05:14:37;;;;;;;9.30;5.43;;;;;;;-0.95;89.54;96850.16;5059357;28;20199;-70
2021/04/16 05:17:03;;;;;;;13.27;5.33;;;;;;;-0.98;91.03;96849.50;5058996;28;20224;-69
2021/04/16 05:19:29;;;;;;;8.97;4.73;;;;;;;-1.00;91.61;96844.44;5058768;28;20227;-72
2021/04/16 05:21:57;;;;;;;11.23;5.73;;;;;;;-0.99;91.93;96850.44;5059543;28;20212;-70
2021/04/16 05:24:24;;;;;;;10.90;5.00;;;;;;;-0.92;93.22;96852.53;5059114;28;20200;-70
2021/04/16 05:26:50;;;;;;;11.30;5.93;;;;;;;-0.87;93.12;96854.88;5058314;28;20224;-70
2021/04/16 05:29:17;;;;;;;11.23;6.50;;;;;;;-0.76;92.52;96850.69;5059144;28;20451;-69
2021/04/16 05:31:43;;;;;;;12.50;6.47;;;;;;;-0.67;92.23;96844.94;5058784;28;20200;-69
2021/04/16 05:34:09;;;;;;;14.00;7.20;;;;;;;-0.52;93.13;96851.78;5058727;28;20200;-69
2021/04/16 05:36:35;;;;;;;18.07;6.73;;;;;;;-0.57;93.28;96846.03;5057916;28;20256;-73
2021/04/16 05:39:01;;;;;;;13.17;6.63;;;;;;;-0.50;95.96;96850.75;5058206;28;20888;-70
2021/04/16 05:41:27;;;;;;;11.13;6.63;;;;;;;-0.40;96.28;96846.63;5058293;28;20201;-73
2021/04/16 05:43:53;;;;;;;11.27;6.90;;;;;;;-0.26;96.07;96850.94;5058913;28;20212;-73
2021/04/16 05:46:19;;;;;;;15.33;6.97;;;;;;;-0.16;95.51;96849.44;5057722;28;20220;-69
2021/04/16 05:48:45;;;;;;;13.90;7.10;;;;;;;-0.04;95.58;96846.06;5059008;28;20226;-69
2021/04/16 05:51:11;;;;;;;12.37;7.30;;;;;;;0.03;96.51;96851.56;5058508;28;20278;-70
2021/04/16 05:53:38;;;;;;;13.67;7.30;;;;;;;0.19;97.00;96860.03;5058270;28;20303;-73
2021/04/16 05:56:05;;;;;;;13.43;7.73;;;;;;;0.34;98.14;96851.22;5057980;28;20225;-70
2021/04/16 05:58:31;;;;;;;15.03;7.90;;;;;;;0.46;98.43;96854.78;5058140;28;20605;-69
2021/04/16 06:00:58;;;;;;;14.60;8.73;;;;;;;0.53;100.00;96851.69;5057613;28;20200;-69
2021/04/16 06:03:23;;;;;;;15.37;8.90;;;;;;;0.54;100.00;96853.34;5059307;28;20902;-69
2021/04/16 06:05:49;;;;;;;18.57;9.53;;;;;;;0.54;100.00;96847.34;5056799;28;20206;-69
2021/04/16 06:08:19;;;;;;;18.83;10.33;;;;;;;0.63;100.00;96852.72;5058043;28;20215;-69
2021/04/16 06:10:45;;;;;;;17.47;9.90;;;;;;;0.73;100.00;96849.41;5058232;28;20244;-73
2021/04/16 06:13:11;;;;;;;14.37;9.37;;;;;;;0.90;100.00;96850.88;5058325;28;20671;-72
2021/04/16 06:15:37;;;;;;;17.17;9.17;;;;;;;0.91;100.00;96852.53;5057176;28;20205;-70
2021/04/16 06:18:03;;;;;;;17.70;9.50;;;;;;;0.98;100.00;96848.56;5058448;28;20280;-72
2021/04/16 06:20:30;;;;;;;14.03;8.70;;;;;;;1.14;100.00;96850.03;5058025;28;20225;-73
2021/04/16 06:22:58;;;;;;;14.00;8.83;;;;;;;1.23;100.00;96850.22;5058180;28;20215;-73
2021/04/16 06:25:26;;;;;;;14.83;8.60;;;;;;;1.37;100.00;96842.28;5057705;28;20212;-73
2021/04/16 06:27:52;;;;;;;18.27;8.27;;;;;;;1.31;100.00;96842.72;5057536;28;20234;-69
2021/04/16 06:30:19;;;;;;;13.37;8.03;;;;;;;1.31;100.00;96847.06;5058215;28;20559;-72
2021/04/16 06:32:47;;;;;;;16.30;8.53;;;;;;;1.36;100.00;96845.00;5057657;28;20198;-69
2021/04/16 06:35:16;;;;;;;13.20;8.10;;;;;;;1.47;100.00;96847.69;5057328;28;20204;-71
2021/04/16 06:37:42;;;;;;;15.17;8.17;;;;;;;1.43;100.00;96847.06;5057131;28;20879;-69
2021/04/16 06:40:09;;;;;;;14.20;8.03;;;;;;;1.52;100.00;96845.59;5056716;28;20705;-72
2021/04/16 06:42:36;;;;;;;14.53;8.33;;;;;;;1.59;100.00;96842.47;5056024;28;20202;-71
2021/04/16 06:45:05;;;;;;;14.30;8.27;;;;;;;1.76;100.00;96842.09;5056951;28;20206;-73
2021/04/16 06:47:35;;;;;;;20.60;8.27;;;;;;;1.86;100.00;96841.31;5056669;28;20219;-74
2021/04/16 06:50:04;;;;;;;16.03;7.33;;;;;;;1.93;99.95;96839.09;5057543;28;20210;-70
2021/04/16 06:52:36;;;;;;;16.33;8.00;;;;;;;1.91;100.00;96843.59;5057262;28;20626;-73
2021/04/16 06:55:06;;;;;;;10.73;7.00;;;;;;;2.06;100.00;96837.28;5057181;28;20215;-73
2021/04/16 06:57:38;;;;;;;13.83;8.30;;;;;;;2.17;100.00;96834.72;5056904;28;21160;-70
2021/04/16 07:00:13;;;;;;;13.77;8.10;;;;;;;2.23;100.00;96839.47;5056980;28;20231;-71
2021/04/16 07:02:47;;;;;;;12.53;7.63;;;;;;;2.41;100.00;96829.38;5055984;28;20253;-71
2021/04/16 07:05:25;;;;;;;12.87;7.60;;;;;;;2.38;100.00;96834.00;5056790;28;20771;-71
2021/04/16 07:07:52;;;;;;;12.63;7.13;;;;;;;2.44;100.00;96834.38;5056734;28;20235;-70
2021/04/16 07:10:22;;;;;;;14.10;7.37;;;;;;;2.40;100.00;96833.88;5055752;28;20214;-73
2021/04/16 07:12:48;;;;;;;13.47;7.43;;;;;;;2.50;100.00;96836.50;5056541;28;20223;-72
2021/04/16 07:15:18;;;;;;;12.10;7.37;;;;;;;2.64;100.00;96833.69;5057021;28;20635;-68
2021/04/16 07:17:46;;;;;;;13.13;7.70;;;;;;;2.59;100.00;96838.41;5057112;28;20694;-69
2021/04/16 07:20:18;;;;;;;14.20;7.20;;;;;;;2.76;98.77;96832.78;5057325;28;20235;-69
2021/04/16 07:22:47;;;;;;;14.33;7.70;;;;;;;2.87;100.00;96830.19;5056321;28;20582;-70
2021/04/16 07:25:23;;;;;;;13.63;8.30;;;;;;;3.18;99.10;96837.31;5056232;28;20215;-69
2021/04/16 07:27:52;;;;;;;12.67;6.83;;;;;;;3.36;94.76;96830.69;5056108;28;21213;-69
2021/04/16 07:30:38;;;;;;;12.63;7.33;;;;;;;3.69;93.03;96834.91;5056554;28;20204;-69
2021/04/16 07:33:09;;;;;;;11.67;6.93;;;;;;;3.80;95.47;96831.47;5055670;28;20207;-68
2021/04/16 07:35:36;;;;;;;12.93;7.43;;;;;;;4.01;92.12;96841.00;5054199;28;20201;-69
2021/04/16 07:38:06;;;;;;;12.87;6.97;;;;;;;4.22;87.71;96835.84;5056186;28;20719;-71
2021/04/16 07:40:34;;;;;;;12.47;6.43;;;;;;;4.18;88.00;96845.69;5055257;28;20545;-71
2021/04/16 07:43:01;;;;;;;11.17;6.60;;;;;;;4.11;91.04;96839.31;5055574;28;20204;-72
2021/04/16 07:45:38;;;;;;;12.00;6.53;;;;;;;4.12;90.01;96835.75;5055545;28;20258;-69
2021/04/16 07:48:29;;;;;;;9.73;6.07;;;;;;;3.82;89.43;96848.63;5055858;28;20621;-69
2021/04/16 07:50:58;;;;;;;11.37;6.43;;;;;;;4.05;88.45;96844.19;5056061;28;21034;-68
2021/04/16 07:53:32;;;;;;;11.77;6.67;;;;;;;4.46;87.14;96829.44;5056213;28;20261;-70
2021/04/16 07:56:17;;;;;;;11.33;6.50;;;;;;;4.89;88.46;96844.06;5055277;28;20653;-72
2021/04/16 07:58:45;;;;;;;11.33;6.50;;;;;;;5.28;85.38;96830.22;5055926;28;20370;-68
2021/04/16 08:01:28;;;;;;;11.63;6.57;;;;;;;4.84;83.42;96833.97;5056188;28;20204;-70
2021/04/16 08:03:57;;;;;;;11.80;6.90;;;;;;;4.93;83.12;96832.38;5055680;28;20227;-70
2021/04/16 08:06:32;;;;;;;11.80;7.23;;;;;;;4.82;81.79;96839.47;5055057;28;20239;-73
2021/04/16 08:08:59;;;;;;;11.37;6.63;;;;;;;4.74;83.64;96841.88;5055155;28;20227;-70
2021/04/16 08:11:28;;;;;;;10.07;6.23;;;;;;;4.65;83.72;96847.88;5055253;28;20208;-70
2021/04/16 08:13:57;;;;;;;10.87;6.10;;;;;;;4.79;83.65;96850.97;5055553;28;20239;-69
2021/04/16 08:16:28;;;;;;;10.73;6.33;;;;;;;4.75;83.21;96844.38;5054765;28;20315;-70
2021/04/16 08:19:28;;;;;;;10.10;5.90;;;;;;;4.76;81.42;96845.19;5055041;28;20228;-69
2021/04/16 08:22:00;;;;;;;11.70;5.77;;;;;;;4.99;81.61;96842.28;5042255;28;20670;-69
2021/04/16 08:24:37;;;;;;;11.57;6.03;;;;;;;5.32;81.65;96839.47;5055671;28;20204;-70
2021/04/16 08:27:11;;;;;;;9.97;6.13;;;;;;;5.20;80.77;96838.72;5054887;28;20220;-69
2021/04/16 08:29:40;;;;;;;13.20;6.40;;;;;;;5.19;80.50;96837.06;5056020;28;20249;-69
2021/04/16 08:32:20;;;;;;;11.90;6.33;;;;;;;5.07;78.85;96842.50;5056174;28;20204;-73
2021/04/16 08:34:53;;;;;;;10.37;6.50;;;;;;;5.49;77.75;96837.06;5056686;28;20216;-70
2021/04/16 08:37:24;;;;;;;9.30;5.70;;;;;;;5.60;78.52;96839.56;5058208;28;20224;-70
2021/04/16 08:39:51;;;;;;;9.40;5.30;;;;;;;5.78;74.28;96838.84;5059048;28;20228;-71
2021/04/16 08:42:22;;;;;;;8.70;5.30;;;;;;;5.77;72.33;96837.19;5059914;28;20604;-69
2021/04/16 08:44:52;;;;;;;8.47;5.37;;;;;;;5.58;76.52;96839.69;5059864;28;20220;-71
2021/04/16 08:47:22;;;;;;;10.17;5.90;;;;;;;5.62;74.01;96840.28;5058663;28;21120;-73
2021/04/16 08:49:52;;;;;;;8.63;5.40;;;;;;;5.69;74.79;96838.78;5059060;28;20215;-73
2021/04/16 08:52:25;;;;;;;8.73;5.37;;;;;;;5.47;72.95;96833.75;5059752;28;20208;-73
2021/04/16 08:54:53;;;;;;;9.60;5.60;;;;;;;5.58;76.08;96831.88;5059719;28;20204;-69
2021/04/16 08:57:22;;;;;;;10.13;5.83;;;;;;;5.63;73.61;96829.69;5058411;28;20224;-69
2021/04/16 08:59:56;;;;;;;8.67;5.03;;;;;;;5.36;71.95;96833.84;5059336;28;20255;-69
2021/04/16 09:02:27;;;;;;;7.77;5.07;;;;;;;5.80;75.16;96823.03;5059767;28;20212;-69
2021/04/16 09:04:55;;;;;;;8.30;4.93;;;;;;;5.81;73.41;96827.31;5058843;28;20577;-70
2021/04/16 09:07:33;;;;;;;10.10;6.10;;;;;;;6.50;77.04;96821.88;5056162;28;20220;-72
2021/04/16 09:10:00;;;;;;;9.70;5.77;;;;;;;6.46;74.61;96818.69;5057657;28;20208;-69
2021/04/16 09:12:48;;;;;;;10.13;5.50;;;;;;;6.68;70.84;96821.00;5058614;28;20712;-69
2021/04/16 09:15:42;;;;;;;9.70;5.23;;;;;;;6.73;74.59;96821.44;5057821;28;20219;-69
2021/04/16 09:18:31;;;;;;;7.83;4.80;;;;;;;6.16;70.75;96823.22;5058355;28;20201;-69
2021/04/16 09:21:15;;;;;;;8.77;5.00;;;;;;;6.20;71.76;96825.44;5058328;28;20275;-72
2021/04/16 09:24:13;;;;;;;10.77;5.60;;;;;;;5.55;72.70;96826.09;5058900;28;20234;-71
2021/04/16 09:27:00;;;;;;;8.53;5.37;;;;;;;5.79;75.68;96823.97;5057512;28;20274;-72
2021/04/16 09:29:51;;;;;;;12.33;5.60;;;;;;;6.13;73.29;96819.06;5058861;28;20628;-69
2021/04/16 09:32:39;;;;;;;8.90;5.33;;;;;;;6.14;70.65;96819.91;5058581;28;20554;-69
2021/04/16 09:35:09;;;;;;;10.77;5.37;;;;;;;5.77;72.90;96821.50;5057546;28;20426;-70
2021/04/16 09:37:37;;;;;;;9.67;5.10;;;;;;;5.43;72.34;96819.28;5057975;28;20258;-73
2021/04/16 09:40:14;;;;;;;7.77;4.13;;;;;;;5.23;71.77;96820.19;5057746;28;20454;-69
2021/04/16 09:42:43;;;;;;;9.03;5.37;;;;;;;5.44;74.28;96819.16;5057794;28;20200;-71
2021/04/16 09:45:13;;;;;;;8.00;5.20;;;;;;;5.68;73.42;96822.28;5057826;28;20201;-68
2021/04/16 09:47:43;;;;;;;8.23;4.93;;;;;;;5.32;76.30;96826.38;5057684;28;20235;-69
2021/04/16 09:50:24;;;;;;;9.43;5.40;;;;;;;5.41;73.61;96821.22;5057691;28;20197;-70
2021/04/16 09:53:14;;;;;;;8.70;5.30;;;;;;;5.51;74.90;96829.91;5059235;28;20212;-68
2021/04/16 09:56:12;;;;;;;10.43;5.37;;;;;;;5.54;73.08;96830.47;5057906;28;20250;-71
2021/04/16 09:59:28;;;;;;;9.03;5.27;;;;;;;5.27;77.14;96834.63;5058210;28;20208;-69
2021/04/16 10:02:36;;;;;;;9.37;5.53;;;;;;;5.40;78.35;96830.00;5058167;28;20231;-72
2021/04/16 10:05:10;;;;;;;9.07;5.30;;;;;;;5.21;75.99;96826.50;5053156;28;20200;-73
2021/04/16 10:07:40;;;;;;;14.03;5.70;;;;;;;5.43;75.46;96824.50;5058104;28;20225;-70
2021/04/16 10:10:17;;;;;;;10.07;5.07;;;;;;;5.35;75.55;96834.81;5058191;28;20377;-69
2021/04/16 10:12:43;;;;;;;8.27;5.10;;;;;;;5.55;73.81;96826.09;5058301;28;20200;-69
2021/04/16 10:15:19;;;;;;;9.37;5.70;;;;;;;5.57;71.64;96832.00;5057443;28;20208;-70
2021/04/16 10:18:01;;;;;;;10.33;5.03;;;;;;;5.58;70.63;96831.03;5058548;28;20277;-68
2021/04/16 10:20:29;;;;;;;8.33;5.37;;;;;;;5.47;72.64;96831.13;5058451;28;20282;-73
2021/04/16 10:23:02;;;;;;;9.03;5.23;;;;;;;5.50;71.63;96828.28;5058427;28;20211;-70
2021/04/16 12:38:26;;;;;;;7.63;4.60;;;;;;;5.99;69.30;96810.00;5054877;28;20380;-69
2021/04/16 12:40:53;;;;;;;7.33;3.97;;;;;;;5.81;67.06;96811.59;5055072;28;20231;-69
2021/04/16 12:43:20;;;;;;;9.30;4.67;;;;;;;5.78;67.35;96802.25;5055261;28;20635;-72
2021/04/16 12:45:46;;;;;;;7.60;4.70;;;;;;;6.08;69.16;96807.38;5054005;28;20690;-72
2021/04/16 12:48:12;;;;;;;6.97;4.40;;;;;;;6.07;67.63;96814.41;5055149;28;20604;-71
2021/04/16 12:50:38;;;;;;;9.20;5.00;;;;;;;6.46;67.86;96800.38;5055490;28;20205;-70
2021/04/16 12:53:04;;;;;;;7.20;4.77;;;;;;;6.53;66.53;96796.25;5055224;28;20697;-68
2021/04/16 12:55:30;;;;;;;7.60;4.93;;;;;;;6.74;68.06;96800.31;5055267;28;20637;-69
2021/04/16 12:58:00;;;;;;;8.53;4.70;;;;;;;6.60;66.88;96802.56;5055432;28;20232;-74
2021/04/16 13:00:31;;;;;;;7.77;4.50;;;;;;;6.14;65.71;96797.19;5055522;28;21020;-73
2021/04/16 13:03:00;;;;;;;8.53;4.67;;;;;;;6.49;65.13;96800.09;5055921;28;20212;-69
2021/04/16 13:05:27;;;;;;;7.53;5.17;;;;;;;6.58;63.93;96801.88;5054680;28;20204;-71
2021/04/16 13:07:54;;;;;;;8.67;4.70;;;;;;;6.52;64.48;96789.34;5055257;28;20231;-69
2021/04/16 13:10:21;;;;;;;7.63;4.93;;;;;;;6.75;64.80;96793.31;5055015;28;20209;-73
2021/04/16 13:12:46;;;;;;;8.10;5.07;;;;;;;6.45;68.27;96785.63;5055838;28;20200;-73
2021/04/16 13:15:14;;;;;;;8.57;5.33;;;;;;;6.71;64.46;96786.72;5054443;28;20212;-69
2021/04/16 13:17:44;;;;;;;9.50;4.87;;;;;;;6.69;63.44;96786.00;5056143;28;20220;-70
2021/04/16 13:20:14;;;;;;;9.43;5.13;;;;;;;6.83;66.03;96785.56;5055362;28;20378;-70
2021/04/16 13:22:40;;;;;;;9.70;5.57;;;;;;;6.90;64.45;96776.19;5059046;28;20690;-71
2021/04/16 13:25:06;;;;;;;11.10;5.07;;;;;;;6.79;62.40;96781.59;5057957;28;20207;-73
2021/04/16 13:27:32;;;;;;;9.00;5.03;;;;;;;6.64;65.88;96782.16;5058874;28;20225;-70
2021/04/16 13:29:58;;;;;;;7.37;4.93;;;;;;;6.77;63.45;96786.97;5058542;28;20215;-69
2021/04/16 13:32:29;;;;;;;7.73;4.70;;;;;;;6.80;64.59;96780.63;5059388;28;20209;-71
2021/04/16 13:34:58;;;;;;;7.17;5.00;;;;;;;7.01;65.49;96774.22;5059103;28;20215;-69
2021/04/16 13:37:29;;;;;;;27.67;12.40;;;;;;;6.98;63.09;96771.88;5058182;28;20332;-70
2021/04/16 13:39:55;;;;;;;10.53;5.17;;;;;;;6.61;64.03;96766.75;5058693;28;20735;-70
2021/04/16 13:42:21;;;;;;;7.20;4.97;;;;;;;6.70;64.05;96771.97;5058841;28;20200;-71
2021/04/16 13:44:48;;;;;;;8.83;4.77;;;;;;;6.67;65.14;96765.22;5058678;28;20204;-72
2021/04/16 13:47:19;;;;;;;6.40;4.50;;;;;;;6.59;65.86;96768.66;5058470;28;20239;-74
2021/04/16 13:49:45;;;;;;;12.17;6.30;;;;;;;6.59;64.60;96764.25;5060097;28;20197;-71
2021/04/16 13:52:13;;;;;;;8.57;4.90;;;;;;;6.42;66.97;96767.56;5057652;28;20208;-70
2021/04/16 13:54:39;;;;;;;8.70;5.27;;;;;;;6.74;67.97;96755.00;5057450;28;20205;-68
2021/04/16 13:57:06;;;;;;;10.13;5.57;;;;;;;6.71;65.36;96752.66;5057671;28;20228;-69